Time;durP1;ratioP1;P1;durP2;ratioP2;P2;SDS_P1;SDS_P2;PMS_P1;PMS_P2;Temp;Humidity;BMP_temperature;BMP_pressure;BME280_temperature;BME280_humidity;BME280_pressure;Samples;Min_cycle;Max_cycle;Signal;HPM_P1;HPM_P2
2024/01/19 00:00:01;;;;;;;7.27;6.43;;;;;;;;;;5095769;28;20998;-65
2024/01/19 00:02:27;;;;;;;6.83;6.17;;;;;;;;;;5097116;28;20533;-66
2024/01/19 00:04:54;;;;;;;10.40;6.47;;;;;;;;;;5096553;28;20493;-66
2024/01/19 00:07:21;;;;;;;7.37;6.70;;;;;;;;;;5094802;28;20486;-66
2024/01/19 00:09:48;;;;;;;6.80;6.10;;;;;;;;;;5093802;28;20472;-66
2024/01/19 00:12:15;;;;;;;7.80;6.53;;;;;;;;;;5092360;28;20478;-66
2024/01/19 00:14:42;;;;;;;6.33;5.73;;;;;;;;;;5089407;28;20455;-65
2024/01/19 00:17:08;;;;;;;7.57;6.80;;;;;;;;;;5092855;28;20523;-66
2024/01/19 00:19:34;;;;;;;7.10;6.47;;;;;;;;;;5095005;28;20515;-66
2024/01/19 00:22:01;;;;;;;10.33;8.20;;;;;;;;;;5090394;28;20467;-66
2024/01/19 00:24:27;;;;;;;9.30;7.90;;;;;;;;;;5094682;28;20543;-65
2024/01/19 00:26:55;;;;;;;8.33;7.53;;;;;;;;;;5089441;28;20515;-65
2024/01/19 00:29:22;;;;;;;10.83;8.50;;;;;;;;;;5090230;28;20460;-65
2024/01/19 00:31:48;;;;;;;9.90;7.30;;;;;;;;;;5098394;28;20506;-65
2024/01/19 00:34:15;;;;;;;12.23;8.03;;;;;;;;;;5093415;28;20471;-65
2024/01/19 00:36:42;;;;;;;8.63;7.80;;;;;;;;;;5095851;28;20458;-65
2024/01/19 00:39:08;;;;;;;8.00;7.20;;;;;;;;;;5097766;28;20475;-65
2024/01/19 00:41:35;;;;;;;8.50;7.70;;;;;;;;;;5083904;28;20532;-65
2024/01/19 00:44:02;;;;;;;10.90;8.50;;;;;;;;;;5090006;28;20474;-65
2024/01/19 00:46:29;;;;;;;8.13;7.30;;;;;;;;;;5090304;28;20443;-65
2024/01/19 00:48:56;;;;;;;8.70;7.37;;;;;;;;;;5093331;28;20465;-65
2024/01/19 00:51:22;;;;;;;11.63;9.00;;;;;;;;;;5096813;28;20486;-65
2024/01/19 00:53:48;;;;;;;9.97;8.97;;;;;;;;;;5096067;28;20463;-65
2024/01/19 00:56:15;;;;;;;10.90;9.30;;;;;;;;;;5089085;28;20530;-65
2024/01/19 00:58:44;;;;;;;14.07;11.20;;;;;;;;;;5099696;28;20480;-65
2024/01/19 01:01:12;;;;;;;12.53;10.70;;;;;;;;;;5099080;28;20455;-66
2024/01/19 01:03:39;;;;;;;14.17;10.80;;;;;;;;;;5097119;28;20471;-64
2024/01/19 01:06:05;;;;;;;16.83;11.30;;;;;;;;;;5097889;28;20451;-65
2024/01/19 01:08:33;;;;;;;13.30;10.45;;;;;;;;;;5097684;28;20505;-65
2024/01/19 01:11:00;;;;;;;13.00;11.03;;;;;;;;;;5093411;28;20686;-65
2024/01/19 01:13:27;;;;;;;13.57;11.73;;;;;;;;;;5096443;28;20635;-65
2024/01/19 01:15:53;;;;;;;11.68;10.23;;;;;;;;;;5079654;28;20500;-65
2024/01/19 01:18:21;;;;;;;14.77;11.02;;;;;;;;;;5095898;28;20304;-64
2024/01/19 01:20:49;;;;;;;11.60;10.40;;;;;;;;;;5090203;28;20272;-65
2024/01/19 01:23:16;;;;;;;14.53;13.13;;;;;;;;;;5094339;28;21019;-65
2024/01/19 01:25:42;;;;;;;19.07;11.10;;;;;;;;;;5098107;28;20518;-65
2024/01/19 01:28:08;;;;;;;12.53;11.23;;;;;;;;;;5092431;28;20486;-65
2024/01/19 01:30:35;;;;;;;14.03;11.37;;;;;;;;;;5100736;28;20573;-65
2024/01/19 01:33:02;;;;;;;12.43;11.00;;;;;;;;;;5092188;28;20454;-64
2024/01/19 01:35:30;;;;;;;18.73;11.30;;;;;;;;;;5091972;28;20548;-65
2024/01/19 01:37:56;;;;;;;18.40;11.27;;;;;;;;;;5093474;28;21164;-65
2024/01/19 01:40:22;;;;;;;13.10;11.38;;;;;;;;;;5097785;28;20498;-65
2024/01/19 01:42:49;;;;;;;11.68;10.45;;;;;;;;;;5093531;28;20298;-65
2024/01/19 01:45:15;;;;;;;14.15;11.40;;;;;;;;;;5100467;28;20640;-64
2024/01/19 01:47:41;;;;;;;18.02;9.52;;;;;;;;;;5103569;28;20276;-65
2024/01/19 01:50:08;;;;;;;15.95;10.50;;;;;;;;;;5102886;28;20232;-65
2024/01/19 01:52:36;;;;;;;16.17;11.40;;;;;;;;;;5093660;28;20652;-64
2024/01/19 01:55:03;;;;;;;12.10;10.23;;;;;;;;;;5088026;28;20498;-65
2024/01/19 01:57:29;;;;;;;11.43;10.32;;;;;;;;;;5090958;28;20237;-64
2024/01/19 01:59:56;;;;;;;12.23;10.93;;;;;;;;;;5088229;28;20232;-64
2024/01/19 02:02:24;;;;;;;16.92;11.00;;;;;;;;;;5101488;28;20517;-64
2024/01/19 02:04:51;;;;;;;16.83;10.50;;;;;;;;;;5089932;28;20261;-65
2024/01/19 02:07:17;;;;;;;14.07;10.98;;;;;;;;;;5094187;28;20284;-65
2024/01/19 02:09:45;;;;;;;14.30;9.70;;;;;;;;;;5097609;28;20533;-65
2024/01/19 02:12:12;;;;;;;11.60;9.70;;;;;;;;;;5103163;28;20479;-65
2024/01/19 02:14:38;;;;;;;12.30;9.90;;;;;;;;;;5092556;28;20463;-65
2024/01/19 02:17:05;;;;;;;13.03;8.87;;;;;;;;;;5109723;28;21139;-64
2024/01/19 02:19:35;;;;;;;9.80;7.40;;;;;;;;;;5103331;28;20562;-64
2024/01/19 02:22:02;;;;;;;9.83;7.90;;;;;;;;;;5099114;28;20459;-64
2024/01/19 02:24:29;;;;;;;9.57;8.67;;;;;;;;;;5100733;28;20459;-65
2024/01/19 02:26:56;;;;;;;10.63;9.63;;;;;;;;;;5099291;28;20451;-65
2024/01/19 02:29:23;;;;;;;9.83;8.93;;;;;;;;;;5105601;28;20455;-65
2024/01/19 02:31:49;;;;;;;20.10;9.53;;;;;;;;;;5101214;28;20881;-65
2024/01/19 02:34:16;;;;;;;9.83;8.83;;;;;;;;;;5098912;28;20514;-64
2024/01/19 02:36:42;;;;;;;10.63;9.50;;;;;;;;;;5096224;28;20589;-64
2024/01/19 02:39:09;;;;;;;11.13;10.03;;;;;;;;;;5099799;28;20573;-64
2024/01/19 02:41:37;;;;;;;12.93;10.83;;;;;;;;;;5102706;28;20451;-64
2024/01/19 02:44:03;;;;;;;11.73;10.33;;;;;;;;;;5097521;28;20510;-65
2024/01/19 02:46:29;;;;;;;11.37;9.90;;;;;;;;;;5096314;28;20487;-65
2024/01/19 02:48:56;;;;;;;15.10;11.10;;;;;;;;;;5090627;28;20534;-65
2024/01/19 02:51:22;;;;;;;11.13;9.70;;;;;;;;;;5093872;28;20963;-65
2024/01/19 02:53:49;;;;;;;18.05;10.43;;;;;;;;;;5094963;28;20656;-65
2024/01/19 02:56:15;;;;;;;14.05;10.60;;;;;;;;;;5097643;28;20236;-65
2024/01/19 02:58:43;;;;;;;14.13;11.68;;;;;;;;;;5110505;28;20261;-65
2024/01/19 03:01:10;;;;;;;15.37;12.00;;;;;;;;;;5094541;28;20663;-65
2024/01/19 03:03:36;;;;;;;14.40;11.73;;;;;;;;;;5096855;28;20498;-65
2024/01/19 03:06:02;;;;;;;12.10;10.90;;;;;;;;;;5096007;28;20542;-65
2024/01/19 03:08:29;;;;;;;17.40;12.10;;;;;;;;;;5098443;28;20443;-64
2024/01/19 03:10:56;;;;;;;14.10;11.75;;;;;;;;;;5096163;28;20527;-64
2024/01/19 03:13:22;;;;;;;14.47;11.73;;;;;;;;;;5094842;28;20236;-64
2024/01/19 03:15:50;;;;;;;12.90;10.90;;;;;;;;;;5093734;28;20546;-64
2024/01/19 03:18:18;;;;;;;12.70;11.40;;;;;;;;;;5096188;28;20519;-64
2024/01/19 03:20:45;;;;;;;13.53;10.57;;;;;;;;;;5097535;28;20451;-64
2024/01/19 03:23:11;;;;;;;13.70;10.40;;;;;;;;;;5106525;28;20561;-65
2024/01/19 03:25:37;;;;;;;12.57;11.07;;;;;;;;;;5091192;28;20507;-64
2024/01/19 03:28:04;;;;;;;15.10;11.53;;;;;;;;;;5092436;28;20458;-65
2024/01/19 03:30:30;;;;;;;12.73;10.80;;;;;;;;;;5098560;28;20454;-65
2024/01/19 03:32:58;;;;;;;14.35;11.65;;;;;;;;;;5087821;28;20481;-65
2024/01/19 03:35:25;;;;;;;12.47;11.37;;;;;;;;;;5092418;28;20653;-65
2024/01/19 03:37:52;;;;;;;12.00;10.50;;;;;;;;;;5094151;28;20455;-65
2024/01/19 03:40:18;;;;;;;14.10;10.20;;;;;;;;;;5097420;28;20614;-65
2024/01/19 03:42:44;;;;;;;12.47;8.93;;;;;;;;;;5097680;28;20509;-64
2024/01/19 03:45:11;;;;;;;12.10;9.27;;;;;;;;;;5084266;28;20559;-65
2024/01/19 03:47:37;;;;;;;11.80;9.20;;;;;;;;;;5098368;28;20520;-65
2024/01/19 03:50:08;;;;;;;14.80;9.50;;;;;;;;;;5090848;28;20489;-64
2024/01/19 03:52:34;;;;;;;10.10;9.13;;;;;;;;;;5093897;28;20459;-65
2024/01/19 03:55:00;;;;;;;10.30;8.90;;;;;;;;;;5102720;28;20485;-64
2024/01/19 03:57:27;;;;;;;10.63;9.20;;;;;;;;;;5095684;28;20996;-64
2024/01/19 03:59:53;;;;;;;10.77;8.98;;;;;;;;;;5098015;28;20462;-64
2024/01/19 04:02:20;;;;;;;12.10;9.57;;;;;;;;;;5084464;28;20198;-64
2024/01/19 04:04:46;;;;;;;13.35;9.90;;;;;;;;;;5099222;28;20966;-64
2024/01/19 04:07:14;;;;;;;18.48;9.93;;;;;;;;;;5086265;28;20265;-64
2024/01/19 04:09:40;;;;;;;10.40;8.87;;;;;;;;;;5091503;28;20288;-64
2024/01/19 04:12:11;;;;;;;11.53;10.23;;;;;;;;;;5095235;28;20455;-64
2024/01/19 04:14:37;;;;;;;16.37;10.33;;;;;;;;;;5090573;28;20481;-65
2024/01/19 04:17:03;;;;;;;15.03;10.50;;;;;;;;;;5086412;28;21030;-65
2024/01/19 04:19:30;;;;;;;15.50;12.47;;;;;;;;;;5100897;28;20481;-65
2024/01/19 04:21:56;;;;;;;16.60;13.30;;;;;;;;;;5096340;28;20501;-64
2024/01/19 04:24:24;;;;;;;16.70;14.07;;;;;;;;;;5102324;28;20927;-64
2024/01/19 04:26:51;;;;;;;18.97;14.90;;;;;;;;;;5088697;28;20449;-64
2024/01/19 04:29:17;;;;;;;34.60;16.63;;;;;;;;;;5090443;28;20484;-64
2024/01/19 04:31:43;;;;;;;19.80;14.98;;;;;;;;;;5094771;28;20534;-64
2024/01/19 04:34:10;;;;;;;21.40;15.50;;;;;;;;;;5089397;28;20787;-64
2024/01/19 04:36:37;;;;;;;27.98;14.10;;;;;;;;;;5092578;28;20467;-64
2024/01/19 04:39:03;;;;;;;18.77;15.20;;;;;;;;;;5099916;28;20233;-64
2024/01/19 04:41:31;;;;;;;24.00;14.83;;;;;;;;;;5097790;28;20470;-64
2024/01/19 04:43:57;;;;;;;20.80;16.30;;;;;;;;;;5097614;28;20582;-63
2024/01/19 04:46:24;;;;;;;19.30;14.73;;;;;;;;;;5086324;28;20907;-64
2024/01/19 04:48:50;;;;;;;18.73;14.50;;;;;;;;;;5087111;28;20231;-64
2024/01/19 04:51:16;;;;;;;14.80;13.27;;;;;;;;;;5097885;28;20451;-64
2024/01/19 04:53:43;;;;;;;18.03;14.57;;;;;;;;;;5088492;28;20208;-64
2024/01/19 04:56:09;;;;;;;23.37;14.93;;;;;;;;;;5093126;28;20542;-64
2024/01/19 04:58:38;;;;;;;17.63;14.55;;;;;;;;;;5095474;28;20547;-65
2024/01/19 05:01:05;;;;;;;20.00;15.10;;;;;;;;;;5095450;28;20288;-65
2024/01/19 05:03:31;;;;;;;21.93;17.00;;;;;;;;;;5094839;28;20494;-65
2024/01/19 05:05:57;;;;;;;18.95;15.98;;;;;;;;;;5112761;28;20454;-65
2024/01/19 05:08:24;;;;;;;19.87;15.57;;;;;;;;;;5101037;28;20241;-64
2024/01/19 05:10:50;;;;;;;27.10;17.20;;;;;;;;;;5111975;28;20945;-66
2024/01/19 05:13:17;;;;;;;28.00;17.70;;;;;;;;;;5101796;28;20493;-64
2024/01/19 05:15:44;;;;;;;26.60;18.07;;;;;;;;;;5096774;28;20539;-64
2024/01/19 05:18:11;;;;;;;22.77;18.00;;;;;;;;;;5091906;28;21162;-65
2024/01/19 05:20:38;;;;;;;26.70;18.93;;;;;;;;;;5091103;28;20522;-65
2024/01/19 05:23:04;;;;;;;28.15;19.42;;;;;;;;;;5106765;28;20478;-65
2024/01/19 05:25:31;;;;;;;29.20;19.33;;;;;;;;;;5104468;28;20201;-65
2024/01/19 05:27:57;;;;;;;26.10;18.17;;;;;;;;;;5105103;28;20490;-66
2024/01/19 05:30:24;;;;;;;23.70;17.33;;;;;;;;;;5095205;28;20998;-65
2024/01/19 05:32:51;;;;;;;19.05;15.05;;;;;;;;;;5096018;28;20427;-66
2024/01/19 05:35:18;;;;;;;20.40;15.67;;;;;;;;;;5095828;28;20245;-66
2024/01/19 05:37:44;;;;;;;23.63;17.73;;;;;;;;;;5094466;28;20491;-66
2024/01/19 05:40:11;;;;;;;25.70;18.33;;;;;;;;;;5099989;28;20502;-66
2024/01/19 05:42:37;;;;;;;28.07;17.93;;;;;;;;;;5096897;28;20961;-65
2024/01/19 05:45:04;;;;;;;28.77;20.48;;;;;;;;;;5098441;28;20546;-65
2024/01/19 05:47:30;;;;;;;30.95;21.88;;;;;;;;;;5093077;28;20246;-65
2024/01/19 05:49:58;;;;;;;28.03;21.00;;;;;;;;;;5102613;28;20259;-66
2024/01/19 05:52:24;;;;;;;35.37;23.53;;;;;;;;;;5109384;28;20477;-65
2024/01/19 05:54:52;;;;;;;34.08;22.27;;;;;;;;;;5094564;28;20601;-66
2024/01/19 05:57:18;;;;;;;28.45;21.20;;;;;;;;;;5097294;28;20240;-64
2024/01/19 05:59:45;;;;;;;31.37;23.50;;;;;;;;;;5103998;28;20333;-65
2024/01/19 06:02:11;;;;;;;36.80;23.53;;;;;;;;;;5090281;28;20515;-67
2024/01/19 06:04:38;;;;;;;32.30;23.10;;;;;;;;;;5097970;28;20507;-65
2024/01/19 06:07:06;;;;;;;37.03;24.00;;;;;;;;;;5094596;28;21015;-65
2024/01/19 06:09:32;;;;;;;31.17;23.13;;;;;;;;;;5086709;28;20470;-65
2024/01/19 06:11:59;;;;;;;40.67;24.10;;;;;;;;;;5093126;28;20447;-64
2024/01/19 06:14:25;;;;;;;36.75;23.13;;;;;;;;;;5089158;28;20550;-65
2024/01/19 06:16:52;;;;;;;38.63;24.87;;;;;;;;;;5092127;28;20283;-66
2024/01/19 06:19:19;;;;;;;43.30;25.53;;;;;;;;;;5102676;28;20756;-65
2024/01/19 06:21:45;;;;;;;42.33;24.10;;;;;;;;;;5106662;28;20478;-67
2024/01/19 06:24:16;;;;;;;42.08;28.40;;;;;;;;;;5093071;28;20490;-66
2024/01/19 06:26:43;;;;;;;32.40;25.60;;;;;;;;;;5102949;28;20691;-65
2024/01/19 06:29:10;;;;;;;49.07;27.23;;;;;;;;;;5090558;28;20763;-65
2024/01/19 06:31:42;;;;;;;41.30;27.27;;;;;;;;;;5091369;28;20492;-66
2024/01/19 06:34:09;;;;;;;43.20;27.00;;;;;;;;;;5093509;28;20948;-66
2024/01/19 06:36:35;;;;;;;48.65;27.17;;;;;;;;;;5095552;28;20478;-65
2024/01/19 06:39:02;;;;;;;45.03;29.07;;;;;;;;;;5090648;28;20604;-66
2024/01/19 06:41:30;;;;;;;48.67;27.63;;;;;;;;;;5091669;28;20444;-67
2024/01/19 06:43:56;;;;;;;49.53;28.47;;;;;;;;;;5094679;28;20514;-66
2024/01/19 06:46:22;;;;;;;45.50;28.37;;;;;;;;;;5091495;28;20452;-66
2024/01/19 06:48:49;;;;;;;45.90;30.10;;;;;;;;;;5094540;28;20447;-67
2024/01/19 06:51:16;;;;;;;47.87;30.83;;;;;;;;;;5091238;28;20513;-66
2024/01/19 06:53:43;;;;;;;47.10;26.70;;;;;;;;;;5092984;28;20466;-66
2024/01/19 06:56:09;;;;;;;43.20;28.67;;;;;;;;;;5095904;28;20443;-65
2024/01/19 06:58:37;;;;;;;47.47;28.47;;;;;;;;;;5094102;28;20237;-65
2024/01/19 07:01:04;;;;;;;48.23;28.90;;;;;;;;;;5096129;28;20897;-66
2024/01/19 07:03:31;;;;;;;48.27;27.90;;;;;;;;;;5092486;28;21009;-66
2024/01/19 07:05:57;;;;;;;49.40;28.40;;;;;;;;;;5092345;28;20459;-67
2024/01/19 07:08:24;;;;;;;47.83;28.70;;;;;;;;;;5089531;28;20840;-67
2024/01/19 07:10:50;;;;;;;45.97;28.17;;;;;;;;;;5094185;28;20201;-66
2024/01/19 07:13:17;;;;;;;41.20;22.77;;;;;;;;;;5089687;28;20565;-66
2024/01/19 07:15:45;;;;;;;48.17;28.63;;;;;;;;;;5092865;28;20487;-67
2024/01/19 07:18:11;;;;;;;60.53;30.07;;;;;;;;;;5105719;28;20459;-67
2024/01/19 07:20:37;;;;;;;57.03;30.47;;;;;;;;;;5093688;28;20526;-67
2024/01/19 07:23:04;;;;;;;57.90;29.50;;;;;;;;;;5092718;28;20452;-67
2024/01/19 07:25:31;;;;;;;59.73;31.73;;;;;;;;;;5094661;28;20857;-67
2024/01/19 07:27:58;;;;;;;48.57;30.20;;;;;;;;;;5100960;28;20450;-69
2024/01/19 07:30:24;;;;;;;48.10;29.33;;;;;;;;;;5092685;28;20545;-69
2024/01/19 07:32:52;;;;;;;56.83;32.87;;;;;;;;;;5093779;28;20474;-67
2024/01/19 07:35:19;;;;;;;50.27;29.83;;;;;;;;;;5090795;28;20502;-67
2024/01/19 07:37:45;;;;;;;51.77;28.73;;;;;;;;;;5100640;28;20458;-69
2024/01/19 07:40:12;;;;;;;58.47;27.90;;;;;;;;;;5091323;28;20550;-65
2024/01/19 07:42:39;;;;;;;51.27;28.77;;;;;;;;;;5105016;28;20442;-68
2024/01/19 07:45:06;;;;;;;51.20;29.70;;;;;;;;;;5101713;28;20519;-68
2024/01/19 07:47:34;;;;;;;58.93;29.27;;;;;;;;;;5107727;28;20514;-69
2024/01/19 07:50:04;;;;;;;52.57;27.67;;;;;;;;;;5102810;28;20452;-69
2024/01/19 07:52:31;;;;;;;52.30;28.30;;;;;;;;;;5096763;28;20461;-69
2024/01/19 07:54:57;;;;;;;58.77;28.63;;;;;;;;;;5106978;28;20486;-68
2024/01/19 07:57:23;;;;;;;50.67;28.47;;;;;;;;;;5104055;28;20875;-68
2024/01/19 07:59:50;;;;;;;46.00;27.93;;;;;;;;;;5097631;28;20478;-74
2024/01/19 08:02:16;;;;;;;50.73;27.00;;;;;;;;;;5102124;28;20483;-68
2024/01/19 08:04:44;;;;;;;56.67;29.67;;;;;;;;;;5090568;28;20515;-68
2024/01/19 08:07:12;;;;;;;56.10;30.30;;;;;;;;;;5090081;28;20508;-69
2024/01/19 08:09:38;;;;;;;61.00;31.07;;;;;;;;;;5087976;28;20475;-69
2024/01/19 08:12:05;;;;;;;55.77;28.80;;;;;;;;;;5091725;28;20475;-68
2024/01/19 08:14:32;;;;;;;55.03;27.67;;;;;;;;;;5104971;28;20943;-68
2024/01/19 08:17:01;;;;;;;48.20;28.33;;;;;;;;;;5092472;28;20458;-68
2024/01/19 08:19:27;;;;;;;55.97;26.40;;;;;;;;;;5102899;28;20494;-69
2024/01/19 08:21:54;;;;;;;49.87;26.40;;;;;;;;;;5097235;28;20474;-68
2024/01/19 08:24:22;;;;;;;51.17;29.27;;;;;;;;;;5095488;28;20517;-68
2024/01/19 08:26:48;;;;;;;41.20;25.13;;;;;;;;;;5095709;28;20526;-68
2024/01/19 08:29:15;;;;;;;47.40;26.20;;;;;;;;;;5099151;28;20486;-68
2024/01/19 08:31:43;;;;;;;50.73;25.37;;;;;;;;;;5090247;28;20459;-68
2024/01/19 08:34:09;;;;;;;53.10;24.77;;;;;;;;;;5100840;28;20501;-67
2024/01/19 08:36:40;;;;;;;47.07;22.63;;;;;;;;;;5110269;28;20486;-68
2024/01/19 08:39:09;;;;;;;44.07;23.80;;;;;;;;;;5093949;28;20938;-69
2024/01/19 08:41:41;;;;;;;41.83;23.40;;;;;;;;;;5096972;28;20526;-68
2024/01/19 08:44:08;;;;;;;42.80;22.23;;;;;;;;;;5083365;28;20479;-68
2024/01/19 08:46:34;;;;;;;38.40;23.53;;;;;;;;;;5105814;28;20992;-70
2024/01/19 08:49:01;;;;;;;36.33;21.83;;;;;;;;;;5098670;28;20467;-68
2024/01/19 08:51:28;;;;;;;30.17;19.73;;;;;;;;;;5103336;28;20447;-68
2024/01/19 08:53:55;;;;;;;32.83;21.33;;;;;;;;;;5096749;28;20471;-80
2024/01/19 08:56:21;;;;;;;30.37;18.90;;;;;;;;;;5090699;28;20479;-70
2024/01/19 08:58:49;;;;;;;33.10;20.13;;;;;;;;;;5103766;28;20455;-68
2024/01/19 09:01:19;;;;;;;25.90;18.73;;;;;;;;;;5087548;28;20470;-65
2024/01/19 09:03:45;;;;;;;34.40;19.20;;;;;;;;;;5092446;28;20499;-68
2024/01/19 09:06:12;;;;;;;32.57;19.47;;;;;;;;;;5099089;28;20470;-69
2024/01/19 09:08:40;;;;;;;33.30;20.27;;;;;;;;;;5102882;28;20522;-68
2024/01/19 09:11:07;;;;;;;27.23;18.90;;;;;;;;;;5104253;28;20501;-68
2024/01/19 09:13:33;;;;;;;33.27;20.40;;;;;;;;;;5094699;28;20529;-66
2024/01/19 09:16:01;;;;;;;28.17;18.20;;;;;;;;;;5103811;28;20481;-69
2024/01/19 09:18:27;;;;;;;26.53;17.93;;;;;;;;;;5105253;28;20792;-70
2024/01/19 09:20:54;;;;;;;25.60;16.07;;;;;;;;;;5097978;28;20479;-69
2024/01/19 09:23:20;;;;;;;27.27;17.70;;;;;;;;;;5104101;28;20442;-67
2024/01/19 09:25:47;;;;;;;26.67;16.67;;;;;;;;;;5092613;28;20525;-71
2024/01/19 09:28:13;;;;;;;26.60;15.60;;;;;;;;;;5107903;28;20466;-67
2024/01/19 09:30:39;;;;;;;27.93;17.50;;;;;;;;;;5099106;28;20483;-68
2024/01/19 09:33:08;;;;;;;26.90;17.40;;;;;;;;;;5108173;28;20457;-67
2024/01/19 09:35:34;;;;;;;21.90;13.73;;;;;;;;;;5096342;28;20489;-68
2024/01/19 09:38:00;;;;;;;25.80;16.63;;;;;;;;;;5091966;28;20491;-68
2024/01/19 09:40:27;;;;;;;22.30;14.10;;;;;;;;;;5094605;28;20494;-69
2024/01/19 09:42:55;;;;;;;27.33;15.03;;;;;;;;;;5100471;28;20482;-70
2024/01/19 09:45:22;;;;;;;23.50;16.60;;;;;;;;;;5094881;28;20475;-68
2024/01/19 09:47:58;;;;;;;24.50;15.73;;;;;;;;;;5108274;28;20481;-68
2024/01/19 09:50:27;;;;;;;27.97;17.77;;;;;;;;;;5109891;28;20453;-67
2024/01/19 09:52:57;;;;;;;27.43;16.33;;;;;;;;;;5100697;28;20497;-68
2024/01/19 09:55:25;;;;;;;20.27;15.70;;;;;;;;;;5099179;28;20475;-69
2024/01/19 09:57:52;;;;;;;20.90;15.13;;;;;;;;;;5096778;28;20506;-68
2024/01/19 10:00:19;;;;;;;19.70;14.43;;;;;;;;;;5095215;28;20495;-68
2024/01/19 10:02:46;;;;;;;25.43;15.70;;;;;;;;;;5097545;28;20478;-67
2024/01/19 10:05:14;;;;;;;24.20;13.73;;;;;;;;;;5102265;28;20528;-68
2024/01/19 10:07:42;;;;;;;20.30;14.53;;;;;;;;;;5108862;28;20449;-79
2024/01/19 10:10:09;;;;;;;20.13;14.43;;;;;;;;;;5099552;28;20457;-66
2024/01/19 10:12:36;;;;;;;21.73;15.20;;;;;;;;;;5103156;28;20526;-66
2024/01/19 10:15:02;;;;;;;23.37;15.13;;;;;;;;;;5088980;28;20455;-66
2024/01/19 10:17:29;;;;;;;20.80;18.30;;;;;;;;;;5098948;28;20520;-66
2024/01/19 10:19:57;;;;;;;22.70;19.00;;;;;;;;;;5098051;28;20458;-67
2024/01/19 10:22:24;;;;;;;24.57;19.10;;;;;;;;;;5092797;28;20865;-66
2024/01/19 10:24:59;;;;;;;22.47;18.30;;;;;;;;;;5099215;28;20958;-65
2024/01/19 10:27:38;;;;;;;22.17;18.80;;;;;;;;;;5102215;28;20482;-66
2024/01/19 10:30:08;;;;;;;23.40;20.23;;;;;;;;;;5098690;28;20525;-66
2024/01/19 10:32:36;;;;;;;23.70;19.60;;;;;;;;;;5102519;28;20486;-65
2024/01/19 10:35:06;;;;;;;20.73;18.80;;;;;;;;;;5098035;28;20494;-66
2024/01/19 10:37:32;;;;;;;19.67;17.60;;;;;;;;;;5103441;28;21153;-65
2024/01/19 10:40:13;;;;;;;22.40;18.40;;;;;;;;;;5096880;28;20540;-63
2024/01/19 10:42:40;;;;;;;21.13;18.27;;;;;;;;;;5095444;28;20439;-66
2024/01/19 10:45:14;;;;;;;20.30;18.10;;;;;;;;;;5099300;28;20528;-66
2024/01/19 10:47:43;;;;;;;22.57;20.13;;;;;;;;;;5098546;28;20471;-65
2024/01/19 10:50:11;;;;;;;26.90;18.73;;;;;;;;;;5100043;28;20972;-67
2024/01/19 10:52:38;;;;;;;25.07;19.70;;;;;;;;;;5090033;28;20455;-66
2024/01/19 10:55:06;;;;;;;20.23;18.23;;;;;;;;;;5100657;28;20454;-67
2024/01/19 10:57:33;;;;;;;21.57;18.67;;;;;;;;;;5096417;28;20458;-66
2024/01/19 10:59:59;;;;;;;21.20;18.87;;;;;;;;;;5091315;28;20756;-67
2024/01/19 11:02:26;;;;;;;19.13;17.07;;;;;;;;;;5094726;28;20460;-66
2024/01/19 11:04:52;;;;;;;22.50;18.50;;;;;;;;;;5102857;28;20520;-66
2024/01/19 11:07:18;;;;;;;21.30;17.70;;;;;;;;;;5094804;28;20865;-66
2024/01/19 11:09:45;;;;;;;19.47;17.43;;;;;;;;;;5096501;28;20483;-66
2024/01/19 11:12:17;;;;;;;18.87;17.03;;;;;;;;;;5108502;28;20446;-66
2024/01/19 11:14:46;;;;;;;23.53;18.00;;;;;;;;;;5095817;28;20451;-68
2024/01/19 11:17:13;;;;;;;19.10;17.10;;;;;;;;;;5102988;28;20451;-67
2024/01/19 11:19:40;;;;;;;23.80;18.43;;;;;;;;;;5106258;28;20997;-67
2024/01/19 11:22:06;;;;;;;20.03;17.87;;;;;;;;;;5096474;28;20897;-68
2024/01/19 11:24:35;;;;;;;20.20;18.20;;;;;;;;;;5101826;28;20450;-68
2024/01/19 11:27:05;;;;;;;23.03;19.63;;;;;;;;;;5097816;28;20534;-68
2024/01/19 11:29:36;;;;;;;21.13;19.10;;;;;;;;;;5103536;28;20882;-67
2024/01/19 11:32:03;;;;;;;20.43;18.27;;;;;;;;;;5093928;28;20483;-67
2024/01/19 11:34:46;;;;;;;23.17;17.73;;;;;;;;;;5096876;28;20810;-67
2024/01/19 11:37:31;;;;;;;19.13;17.23;;;;;;;;;;5097835;28;20455;-67
2024/01/19 11:39:58;;;;;;;19.03;17.10;;;;;;;;;;5095736;28;20555;-67
2024/01/19 11:42:45;;;;;;;18.87;17.10;;;;;;;;;;5090580;28;20482;-66
2024/01/19 11:45:22;;;;;;;19.43;17.57;;;;;;;;;;5079540;28;20534;-67
2024/01/19 11:47:48;;;;;;;19.00;17.10;;;;;;;;;;5094580;28;20483;-66
2024/01/19 11:50:14;;;;;;;18.80;14.83;;;;;;;;;;5092789;28;20864;-67
2024/01/19 11:52:44;;;;;;;14.30;12.90;;;;;;;;;;5091027;28;20447;-65
2024/01/19 11:55:28;;;;;;;21.70;19.47;;;;;;;;;;5102426;28;20475;-66
2024/01/19 11:57:55;;;;;;;24.53;18.47;;;;;;;;;;5095219;28;20455;-67
2024/01/19 12:00:23;;;;;;;19.53;17.50;;;;;;;;;;5097339;28;20455;-67
2024/01/19 12:02:50;;;;;;;19.70;17.63;;;;;;;;;;5102714;28;20439;-67
2024/01/19 12:05:20;;;;;;;16.60;14.90;;;;;;;;;;5097255;28;20487;-66
2024/01/19 12:07:46;;;;;;;21.17;19.03;;;;;;;;;;5097615;28;20470;-67
2024/01/19 12:10:15;;;;;;;20.03;17.93;;;;;;;;;;5100046;28;20495;-67
2024/01/19 12:12:42;;;;;;;24.63;20.17;;;;;;;;;;5097597;28;20447;-68
2024/01/19 12:15:10;;;;;;;19.80;17.70;;;;;;;;;;5096329;28;20454;-68
2024/01/19 12:17:40;;;;;;;20.47;18.20;;;;;;;;;;5096053;28;20474;-67
2024/01/19 12:20:09;;;;;;;20.83;18.93;;;;;;;;;;5104411;28;20462;-67
2024/01/19 12:22:36;;;;;;;20.40;16.33;;;;;;;;;;5097169;28;20458;-67
2024/01/19 12:25:12;;;;;;;23.33;18.43;;;;;;;;;;5096502;28;20483;-66
2024/01/19 12:27:38;;;;;;;19.57;17.57;;;;;;;;;;5096688;28;20479;-66
2024/01/19 12:30:09;;;;;;;21.50;17.60;;;;;;;;;;5086158;28;20451;-64
2024/01/19 12:32:35;;;;;;;18.07;16.17;;;;;;;;;;5095160;28;20454;-66
2024/01/19 12:35:03;;;;;;;19.30;15.53;;;;;;;;;;5094239;28;20955;-66
2024/01/19 12:37:30;;;;;;;17.70;15.90;;;;;;;;;;5096948;28;20503;-63
2024/01/19 12:40:10;;;;;;;20.43;15.90;;;;;;;;;;5099877;28;20493;-69
2024/01/19 12:42:37;;;;;;;21.37;16.77;;;;;;;;;;5091868;28;20485;-67
2024/01/19 12:45:04;;;;;;;19.80;17.73;;;;;;;;;;5098392;28;20466;-67
2024/01/19 12:47:32;;;;;;;21.37;18.30;;;;;;;;;;5088005;28;20456;-66
2024/01/19 12:50:01;;;;;;;24.63;18.23;;;;;;;;;;5092184;28;20819;-66
2024/01/19 12:52:29;;;;;;;20.23;18.13;;;;;;;;;;5098406;28;20466;-68
2024/01/19 12:54:55;;;;;;;22.77;16.90;;;;;;;;;;5101609;28;20489;-66
2024/01/19 12:57:22;;;;;;;23.90;16.33;;;;;;;;;;5097528;28;20463;-67
2024/01/19 13:00:06;;;;;;;22.27;13.53;;;;;;;;;;5103861;28;20458;-67
2024/01/19 13:02:32;;;;;;;19.67;15.30;;;;;;;;;;5101557;28;20470;-68
2024/01/19 13:04:59;;;;;;;23.93;17.97;;;;;;;;;;5108331;28;20453;-68
2024/01/19 13:07:25;;;;;;;21.00;17.30;;;;;;;;;;5101690;28;20567;-67
2024/01/19 13:10:01;;;;;;;22.53;16.27;;;;;;;;;;5102521;28;20443;-67
2024/01/19 13:12:28;;;;;;;25.67;17.30;;;;;;;;;;5107588;28;20525;-66
2024/01/19 13:15:03;;;;;;;28.53;15.40;;;;;;;;;;5099368;28;20867;-66
2024/01/19 13:17:29;;;;;;;21.77;17.17;;;;;;;;;;5106360;28;20480;-68
2024/01/19 13:19:56;;;;;;;20.73;16.87;;;;;;;;;;5100703;28;20454;-65
2024/01/19 13:22:22;;;;;;;19.30;15.77;;;;;;;;;;5102757;28;20502;-66
2024/01/19 13:24:49;;;;;;;24.90;17.60;;;;;;;;;;5105266;28;20779;-67
2024/01/19 13:27:17;;;;;;;23.00;18.30;;;;;;;;;;5106732;28;20510;-66
2024/01/19 13:29:43;;;;;;;27.33;18.13;;;;;;;;;;5106990;28;20499;-67
2024/01/19 13:32:10;;;;;;;29.33;20.00;;;;;;;;;;5104665;28;20976;-66
2024/01/19 13:34:36;;;;;;;27.60;20.10;;;;;;;;;;5113498;28;20508;-68
2024/01/19 13:37:03;;;;;;;30.27;20.23;;;;;;;;;;5105722;28;20719;-66
2024/01/19 13:39:29;;;;;;;23.53;18.20;;;;;;;;;;5102962;28;20551;-67
2024/01/19 13:41:56;;;;;;;29.70;19.10;;;;;;;;;;5106341;28;20883;-67
2024/01/19 13:44:24;;;;;;;27.63;20.80;;;;;;;;;;5102954;28;20446;-66
2024/01/19 13:46:50;;;;;;;29.00;20.73;;;;;;;;;;5107688;28;20489;-65
2024/01/19 13:49:17;;;;;;;28.00;20.20;;;;;;;;;;5106938;28;20457;-65
2024/01/19 13:51:43;;;;;;;35.17;22.50;;;;;;;;;;5102332;28;20476;-67
2024/01/19 13:54:10;;;;;;;32.07;22.93;;;;;;;;;;5101378;28;20478;-66
2024/01/19 13:56:36;;;;;;;34.13;22.90;;;;;;;;;;5098690;28;20742;-65
2024/01/19 13:59:02;;;;;;;31.83;22.60;;;;;;;;;;5096096;28;20450;-65
2024/01/19 14:01:30;;;;;;;31.50;21.83;;;;;;;;;;5096247;28;20454;-66
2024/01/19 14:03:57;;;;;;;32.63;22.87;;;;;;;;;;5095844;28;20474;-69
2024/01/19 14:06:23;;;;;;;29.47;22.33;;;;;;;;;;5099118;28;21029;-68
2024/01/19 14:08:51;;;;;;;36.00;24.23;;;;;;;;;;5097006;28;20452;-67
2024/01/19 14:11:18;;;;;;;37.67;22.70;;;;;;;;;;5097761;28;21007;-67
2024/01/19 14:13:44;;;;;;;28.10;19.77;;;;;;;;;;5089603;28;20475;-77
2024/01/19 14:16:11;;;;;;;37.07;22.93;;;;;;;;;;5100775;28;20442;-78
2024/01/19 14:18:39;;;;;;;38.03;22.83;;;;;;;;;;5099075;28;20451;-66